createdAt,value
2022-08-17T05:14:44.498Z,99.99
2022-08-17T05:15:45.081Z,99.99
2022-08-17T05:16:42.698Z,99.99
2022-08-17T05:17:41.657Z,99.99
2022-08-17T05:18:41.647Z,99.99
2022-08-17T05:19:41.997Z,99.99
2022-08-17T05:20:41.630Z,99.99
2022-08-17T05:21:41.818Z,99.99
2022-08-17T05:22:41.548Z,99.99
2022-08-17T05:23:43.111Z,99.99
2022-08-17T05:24:43.504Z,99.99
2022-08-17T05:25:42.625Z,99.99
2022-08-17T05:26:42.871Z,99.99
2022-08-17T05:27:41.519Z,99.99
2022-08-17T05:28:41.480Z,99.99
2022-08-17T05:29:41.829Z,99.99
2022-08-17T05:30:41.521Z,99.99
2022-08-17T05:31:41.791Z,99.99
2022-08-17T05:32:41.415Z,99.99
2022-08-17T05:33:44.535Z,99.99
2022-08-17T05:34:41.412Z,99.99
2022-08-17T05:35:41.351Z,99.99
2022-08-17T05:36:44.510Z,99.99
2022-08-17T05:37:41.363Z,99.99
2022-08-17T05:38:41.344Z,99.99
2022-08-17T05:39:41.432Z,99.99
2022-08-17T05:40:41.224Z,99.99
2022-08-17T05:41:42.065Z,99.99
2022-08-17T05:42:41.994Z,99.99
2022-08-17T05:43:41.210Z,99.99
2022-08-17T05:44:41.168Z,99.99
2022-08-17T05:45:55.932Z,99.99
2022-08-17T05:46:42.303Z,99.99
2022-08-17T05:47:41.347Z,99.99
2022-08-17T05:48:41.154Z,99.99
2022-08-17T05:49:41.099Z,99.99
2022-08-17T05:50:41.367Z,99.99
2022-08-17T05:51:41.829Z,99.99
2022-08-17T05:52:41.802Z,99.99
2022-08-17T05:53:41.079Z,99.99
2022-08-17T05:54:41.034Z,99.99
2022-08-17T05:55:41.045Z,99.99
2022-08-17T05:56:41.054Z,99.99
2022-08-17T05:57:43.484Z,99.99
2022-08-17T05:58:42.007Z,99.99
2022-08-17T05:59:40.981Z,99.99
2022-08-17T06:00:42.121Z,99.99
2022-08-17T06:01:41.069Z,99.99
2022-08-17T06:02:45.572Z,99.99
2022-08-17T06:03:42.774Z,99.99
2022-08-17T06:04:41.919Z,99.99
2022-08-17T06:05:40.859Z,99.99
2022-08-17T06:06:40.937Z,99.99
2022-08-17T06:07:41.025Z,99.99
2022-08-17T06:08:40.975Z,99.99
2022-08-17T06:09:40.871Z,99.99
2022-08-17T06:10:41.004Z,99.99
2022-08-17T06:11:40.815Z,99.99
2022-08-17T06:12:40.826Z,99.99
2022-08-17T06:13:40.772Z,99.99
2022-08-17T06:14:41.752Z,99.99
2022-08-17T06:15:40.956Z,99.99
2022-08-17T06:16:40.728Z,99.99
2022-08-17T06:17:40.706Z,99.99
2022-08-17T06:18:40.698Z,99.99
2022-08-17T06:19:40.701Z,99.44
2022-08-17T06:20:40.685Z,99.15
2022-08-17T06:21:40.679Z,99.15
2022-08-17T06:22:40.643Z,98.80
2022-08-17T06:23:40.610Z,98.85
2022-08-17T06:24:41.537Z,98.15
2022-08-17T06:25:40.622Z,97.85
2022-08-17T06:26:43.189Z,97.15
2022-08-17T06:27:40.574Z,96.65
2022-08-17T06:28:40.593Z,97.35
2022-08-17T06:29:40.542Z,97.25
2022-08-17T06:30:59.318Z,96.20
2022-08-17T06:31:42.384Z,96.20
2022-08-17T06:32:41.272Z,94.71
2022-08-17T06:33:40.492Z,94.26
2022-08-17T06:34:41.332Z,94.07
2022-08-17T06:35:40.523Z,94.82
2022-08-17T06:36:40.476Z,94.37
2022-08-17T06:37:40.458Z,93.48
2022-08-17T06:38:40.508Z,90.44
2022-08-17T06:39:40.491Z,91.34
2022-08-17T06:40:40.445Z,88.71
2022-08-17T06:41:40.534Z,90.00
2022-08-17T06:42:54.759Z,88.11
2022-08-17T06:43:45.017Z,88.31
2022-08-17T06:44:43.597Z,88.87
2022-08-17T06:45:41.409Z,89.26
2022-08-17T06:46:40.377Z,88.62
2022-08-17T06:47:40.357Z,88.92
2022-08-17T06:48:40.710Z,85.60
2022-08-17T06:49:40.329Z,87.39
2022-08-17T06:50:40.374Z,87.79
2022-08-17T06:51:40.250Z,86.29
2022-08-17T06:52:46.704Z,85.30
2022-08-17T06:53:41.263Z,84.31
2022-08-17T06:54:40.242Z,86.49
2022-08-17T06:55:40.377Z,87.35
2022-08-17T06:56:53.033Z,86.75
2022-08-17T06:57:41.184Z,84.96
2022-08-17T06:58:41.084Z,87.80
2022-08-17T06:59:55.257Z,86.77
2022-08-17T07:00:41.173Z,84.19
2022-08-17T07:01:40.264Z,85.97
2022-08-17T07:03:02.278Z,84.58
2022-08-17T07:03:43.047Z,85.38
2022-08-17T07:04:41.016Z,82.26
2022-08-17T07:05:40.045Z,83.15
2022-08-17T07:06:40.826Z,83.84
2022-08-17T07:07:40.579Z,82.71
2022-08-17T07:08:40.028Z,81.38
2022-08-17T07:09:40.222Z,80.26
2022-08-17T07:10:39.977Z,77.94
2022-08-17T07:11:40.650Z,74.27
2022-08-17T07:12:40.618Z,75.27
2022-08-17T07:13:39.919Z,74.44
2022-08-17T07:14:39.930Z,73.15
2022-08-17T07:15:40.726Z,73.81
2022-08-17T07:16:40.960Z,75.39
2022-08-17T07:17:47.720Z,74.21
2022-08-17T07:18:41.044Z,73.81
2022-08-17T07:19:40.862Z,76.18
2022-08-17T07:20:41.806Z,77.44
2022-08-17T07:21:39.843Z,74.27
2022-08-17T07:22:55.329Z,75.71
2022-08-17T07:23:40.782Z,74.10
2022-08-17T07:24:40.630Z,73.37
2022-08-17T07:25:41.756Z,74.16
2022-08-17T07:26:40.580Z,73.77
2022-08-17T07:27:40.601Z,73.73
2022-08-17T07:28:39.738Z,69.71
2022-08-17T07:29:40.700Z,70.37
2022-08-17T07:30:45.802Z,70.47
2022-08-17T07:31:40.678Z,71.06
2022-08-17T07:32:40.629Z,70.11
2022-08-17T07:33:39.671Z,71.30
2022-08-17T07:34:39.679Z,71.30
2022-08-17T07:35:41.290Z,71.46
2022-08-17T07:36:39.665Z,70.77
2022-08-17T07:37:40.440Z,71.56
2022-08-17T07:38:40.573Z,70.97
2022-08-17T07:39:58.906Z,71.36
2022-08-17T07:40:40.620Z,71.16
2022-08-17T07:41:57.678Z,71.56
2022-08-17T07:42:44.934Z,70.93
2022-08-17T07:43:40.601Z,70.34
2022-08-17T07:44:39.544Z,69.74
2022-08-17T07:45:39.569Z,69.16
2022-08-17T07:46:39.506Z,70.50
2022-08-17T07:47:39.504Z,66.06
2022-08-17T07:48:39.661Z,67.51
2022-08-17T07:49:39.480Z,68.46
2022-08-17T07:50:39.456Z,66.69
2022-08-17T07:51:40.337Z,67.44
2022-08-17T07:52:51.049Z,66.46
2022-08-17T07:53:42.367Z,64.39
2022-08-17T07:54:39.387Z,64.00
2022-08-17T07:55:39.401Z,65.58
2022-08-17T07:56:40.150Z,65.15
2022-08-17T07:57:40.279Z,65.12
2022-08-17T07:58:39.323Z,62.76
2022-08-17T07:59:41.236Z,63.81
2022-08-17T08:00:40.270Z,64.56
2022-08-17T08:01:39.435Z,64.76
2022-08-17T08:02:39.302Z,64.92
2022-08-17T08:03:40.242Z,62.47
2022-08-17T08:05:49.830Z,62.70
2022-08-17T08:06:40.232Z,59.76
2022-08-17T08:07:39.353Z,59.47
2022-08-17T08:08:39.246Z,59.66
2022-08-17T08:09:39.277Z,61.60
2022-08-17T08:10:45.079Z,60.03
2022-08-17T08:11:44.122Z,58.75
2022-08-17T08:12:39.176Z,59.14
2022-08-17T08:13:39.154Z,62.81
2022-08-17T08:14:39.187Z,60.47
2022-08-17T08:15:39.087Z,62.93
2022-08-17T08:16:40.088Z,59.72
2022-08-17T08:17:39.175Z,60.90
2022-08-17T08:18:55.782Z,65.22
2022-08-17T08:19:40.110Z,63.35
2022-08-17T08:20:52.080Z,60.31
2022-08-17T08:21:41.529Z,60.28
2022-08-17T08:22:39.252Z,62.24
2022-08-17T08:23:39.830Z,59.39
2022-08-17T08:24:39.046Z,62.21
2022-08-17T08:25:39.345Z,59.63
2022-08-17T08:26:39.345Z,60.58
2022-08-17T08:27:39.338Z,60.46
2022-08-17T08:28:38.952Z,56.21
2022-08-17T08:29:38.937Z,56.16
2022-08-17T08:30:39.297Z,54.60
2022-08-17T08:31:42.238Z,51.44
2022-08-17T08:32:38.878Z,55.32
2022-08-17T08:33:39.652Z,56.79
2022-08-17T08:34:53.184Z,53.08
2022-08-17T08:35:40.728Z,53.78
2022-08-17T08:37:02.076Z,53.47
2022-08-17T08:37:43.214Z,51.61
2022-08-17T08:38:38.871Z,52.37
2022-08-17T08:39:38.865Z,53.91
2022-08-17T08:40:38.813Z,52.05
2022-08-17T08:41:39.645Z,53.32
2022-08-17T08:42:39.820Z,50.16
2022-08-17T08:43:39.700Z,50.26
2022-08-17T08:44:59.879Z,54.46
2022-08-17T08:45:40.580Z,53.78
2022-08-17T08:46:38.693Z,51.14
2022-08-17T08:47:39.573Z,52.31
2022-08-17T08:48:56.837Z,50.75
2022-08-17T08:50:02.564Z,52.41
2022-08-17T08:50:39.674Z,50.82
2022-08-17T08:51:38.661Z,55.32
2022-08-17T08:52:39.624Z,50.51
2022-08-17T08:53:38.644Z,49.54
2022-08-17T08:54:39.413Z,52.31
2022-08-17T08:55:38.597Z,50.49
2022-08-17T08:56:38.866Z,52.64
2022-08-17T08:57:39.074Z,52.05
2022-08-17T08:58:41.733Z,53.91
2022-08-17T08:59:42.144Z,51.88
2022-08-17T09:00:39.563Z,50.59
2022-08-17T09:01:38.597Z,50.75
2022-08-17T09:02:38.548Z,52.12
2022-08-17T09:03:52.309Z,50.53
2022-08-17T09:05:10.311Z,49.78
2022-08-17T09:05:39.457Z,51.04
2022-08-17T09:06:39.081Z,48.46
2022-08-17T09:07:38.566Z,50.66
2022-08-17T09:08:38.442Z,51.86
2022-08-17T09:09:38.457Z,51.78
2022-08-17T09:10:39.166Z,54.46
2022-08-17T09:12:02.543Z,53.57
2022-08-17T09:12:39.397Z,51.54
2022-08-17T09:13:38.376Z,52.42
2022-08-17T09:14:45.059Z,52.42
2022-08-17T09:15:39.398Z,52.10
2022-08-17T09:16:38.310Z,52.10
2022-08-17T09:17:38.797Z,50.90
2022-08-17T09:19:00.582Z,50.61
2022-08-17T09:19:39.357Z,51.98
2022-08-17T09:20:38.349Z,48.72
2022-08-17T09:21:39.119Z,48.31
2022-08-17T09:22:39.211Z,50.27
2022-08-17T09:23:38.540Z,50.05
2022-08-17T09:24:38.978Z,48.60
2022-08-17T09:25:38.742Z,48.48
2022-08-17T09:26:38.811Z,48.09
2022-08-17T09:27:38.191Z,48.68
2022-08-17T09:28:38.181Z,49.12
2022-08-17T09:29:38.262Z,46.89
2022-08-17T09:30:38.192Z,48.36
2022-08-17T09:31:46.480Z,49.24
2022-08-17T09:32:39.861Z,46.92
2022-08-17T09:33:38.098Z,48.55
2022-08-17T09:34:38.904Z,47.19
2022-08-17T09:35:38.118Z,48.93
2022-08-17T09:36:38.077Z,46.95
2022-08-17T09:37:38.135Z,46.46
2022-08-17T09:38:38.093Z,46.75
2022-08-17T09:39:39.055Z,46.95
2022-08-17T09:40:38.008Z,45.78
2022-08-17T09:41:38.017Z,46.26
2022-08-17T09:42:38.029Z,48.19
2022-08-17T09:43:38.238Z,47.80
2022-08-17T09:44:38.119Z,48.71
2022-08-17T09:45:38.147Z,49.49
2022-08-17T09:46:38.883Z,48.58
2022-08-17T09:47:38.151Z,49.17
2022-08-17T09:48:38.080Z,46.12
2022-08-17T09:49:37.922Z,47.49
2022-08-17T09:51:04.094Z,48.73
2022-08-17T09:51:38.965Z,46.86
2022-08-17T09:52:37.877Z,48.88
2022-08-17T09:53:37.831Z,45.54
2022-08-17T09:54:39.560Z,45.54
2022-08-17T09:55:37.890Z,46.40
2022-08-17T09:56:41.036Z,45.32
2022-08-17T09:57:38.825Z,45.89
2022-08-17T09:58:37.762Z,42.41
2022-08-17T09:59:38.606Z,43.40
2022-08-17T10:00:37.795Z,45.28
2022-08-17T10:01:37.788Z,45.57
2022-08-17T10:02:37.716Z,44.79
2022-08-17T10:03:38.677Z,45.86
2022-08-17T10:04:39.647Z,47.61
2022-08-17T10:05:37.723Z,46.44
2022-08-17T10:06:37.668Z,45.18
2022-08-17T10:07:37.667Z,45.29
2022-08-17T10:08:37.634Z,47.53
2022-08-17T10:09:37.650Z,46.69
2022-08-17T10:10:37.620Z,45.32
2022-08-17T10:11:37.610Z,46.04
2022-08-17T10:12:39.349Z,46.63
2022-08-17T10:13:39.513Z,49.15
2022-08-17T10:14:44.371Z,46.10
2022-08-17T10:15:38.564Z,46.17
2022-08-17T10:16:37.543Z,46.34
2022-08-17T10:17:37.704Z,46.47
2022-08-17T10:18:37.548Z,45.98
2022-08-17T10:19:37.604Z,44.32
2022-08-17T10:20:37.494Z,43.15
2022-08-17T10:21:37.524Z,44.71
2022-08-17T10:22:37.926Z,44.03
2022-08-17T10:23:37.466Z,46.05
2022-08-17T10:24:37.435Z,46.71
2022-08-17T10:25:54.051Z,44.09
2022-08-17T10:26:55.354Z,44.86
2022-08-17T10:27:38.450Z,44.04
2022-08-17T10:28:37.401Z,44.02
2022-08-17T10:29:49.243Z,40.79
2022-08-17T10:30:38.494Z,40.87
2022-08-17T10:31:37.377Z,41.36
2022-08-17T10:32:37.379Z,43.37
2022-08-17T10:33:37.371Z,41.53
2022-08-17T10:35:05.241Z,41.89
2022-08-17T10:36:10.575Z,42.48
2022-08-17T10:37:05.124Z,43.49
2022-08-17T10:38:05.090Z,42.85
2022-08-17T10:39:05.111Z,44.33
2022-08-17T10:40:05.120Z,44.51
2022-08-17T10:41:05.154Z,42.05
2022-08-17T10:42:05.124Z,44.78
2022-08-17T10:43:05.204Z,41.67
2022-08-17T10:44:37.252Z,42.83
2022-08-17T10:45:06.253Z,43.36
2022-08-17T10:46:09.257Z,43.96
2022-08-17T10:47:06.034Z,42.02
2022-08-17T10:48:06.646Z,43.11
2022-08-17T10:49:05.195Z,44.59
2022-08-17T10:50:04.998Z,45.39
2022-08-17T10:51:05.920Z,45.78
2022-08-17T10:52:04.930Z,47.05
2022-08-17T10:53:05.170Z,45.68
2022-08-17T10:54:04.960Z,43.18
2022-08-17T10:55:04.954Z,43.27
2022-08-17T10:56:04.879Z,46.31
2022-08-17T10:57:04.909Z,46.53
2022-08-17T10:58:04.856Z,44.68
2022-08-17T10:59:04.853Z,47.63
2022-08-17T11:00:04.861Z,46.97
2022-08-17T11:01:04.924Z,46.88
2022-08-17T11:02:04.895Z,47.58
2022-08-17T11:03:04.960Z,48.07
2022-08-17T11:04:04.887Z,49.24
2022-08-17T11:05:04.862Z,49.46
2022-08-17T11:06:04.832Z,49.68
2022-08-17T11:07:04.805Z,49.97
2022-08-17T11:08:04.776Z,50.66
2022-08-17T11:09:04.812Z,50.95
2022-08-17T11:10:04.738Z,50.68
2022-08-17T11:11:04.777Z,49.73
2022-08-17T11:12:04.804Z,47.97
2022-08-17T11:13:04.690Z,49.14
2022-08-17T11:14:05.208Z,51.07
2022-08-17T11:15:04.709Z,51.56
2022-08-17T11:16:08.256Z,50.78
2022-08-17T11:17:04.996Z,49.90
2022-08-17T11:18:04.849Z,49.80
2022-08-17T11:19:06.574Z,49.70
2022-08-17T11:20:04.640Z,48.63
2022-08-17T11:21:04.641Z,48.50
2022-08-17T11:22:04.650Z,48.97
2022-08-17T11:23:04.625Z,49.02
2022-08-17T11:24:05.126Z,48.19
2022-08-17T11:25:04.621Z,47.36
2022-08-17T11:26:04.619Z,46.95
2022-08-17T11:27:04.560Z,44.40
2022-08-17T11:28:04.554Z,44.82
2022-08-17T11:29:04.484Z,46.11
2022-08-17T11:30:05.861Z,44.01
2022-08-17T11:31:05.435Z,40.96
2022-08-17T11:32:04.986Z,41.45
2022-08-17T11:33:06.569Z,39.41
2022-08-17T11:34:04.633Z,39.39
2022-08-17T11:35:04.813Z,41.91
2022-08-17T11:36:06.635Z,39.90
2022-08-17T11:37:04.654Z,41.11
2022-08-17T11:38:08.700Z,39.37
2022-08-17T11:39:08.714Z,39.18
2022-08-17T11:40:06.005Z,38.71
2022-08-17T11:41:06.452Z,41.31
2022-08-17T11:42:04.310Z,38.81
2022-08-17T11:43:04.370Z,38.04
2022-08-17T11:44:04.466Z,36.80
2022-08-17T11:45:04.541Z,40.84
2022-08-17T11:46:04.323Z,38.21
2022-08-17T11:47:06.258Z,38.58
2022-08-17T11:49:05.291Z,40.63
2022-08-17T11:50:04.312Z,39.01
2022-08-17T11:51:04.301Z,37.48
2022-08-17T11:52:04.282Z,38.46
2022-08-17T11:53:04.332Z,39.24
2022-08-17T11:54:31.164Z,37.51
2022-08-17T11:55:31.957Z,37.81
2022-08-17T11:56:05.146Z,38.19
2022-08-17T11:57:04.261Z,40.61
2022-08-17T11:58:04.121Z,40.64
2022-08-17T11:59:04.858Z,41.64
2022-08-17T12:00:04.259Z,41.57
2022-08-17T12:01:04.186Z,41.32
2022-08-17T12:02:04.375Z,42.02
2022-08-17T12:03:04.159Z,43.50
2022-08-17T12:04:04.302Z,42.08
2022-08-17T12:05:04.080Z,42.79
2022-08-17T12:06:05.068Z,43.39
2022-08-17T12:07:04.058Z,44.97
2022-08-17T12:08:04.912Z,48.02
2022-08-17T12:09:04.134Z,47.05
2022-08-17T12:10:04.045Z,44.14
2022-08-17T12:11:03.980Z,46.21
2022-08-17T12:12:13.462Z,45.43
2022-08-17T12:13:04.952Z,45.33
2022-08-17T12:14:04.535Z,46.33
2022-08-17T12:15:11.433Z,45.16
2022-08-17T12:16:04.696Z,44.69
2022-08-17T12:17:04.034Z,47.33
2022-08-17T12:18:17.186Z,45.37
2022-08-17T12:19:07.205Z,45.97
2022-08-17T12:20:30.367Z,45.94
2022-08-17T12:21:07.305Z,45.16
2022-08-17T12:22:06.116Z,45.72
2022-08-17T12:23:05.418Z,45.12
2022-08-17T12:24:08.194Z,45.51
2022-08-17T12:25:05.296Z,45.31
2022-08-17T12:26:04.789Z,45.90
2022-08-17T12:27:03.855Z,44.90
2022-08-17T12:28:07.408Z,46.75
2022-08-17T12:29:03.785Z,43.63
2022-08-17T12:30:04.729Z,43.16
2022-08-17T12:31:05.211Z,46.17
2022-08-17T12:32:03.716Z,44.78
2022-08-17T12:33:03.734Z,47.22
2022-08-17T12:34:04.242Z,46.70
2022-08-17T12:35:03.669Z,47.58
2022-08-17T12:36:03.609Z,46.22
2022-08-17T12:37:04.473Z,45.92
2022-08-17T12:38:04.602Z,44.56
2022-08-17T12:39:13.105Z,44.37
2022-08-17T12:40:04.630Z,42.61
2022-08-17T12:41:03.603Z,43.51
2022-08-17T12:42:03.540Z,43.61
2022-08-17T12:43:04.466Z,42.34
2022-08-17T12:44:04.281Z,44.19
2022-08-17T12:45:04.469Z,44.09
2022-08-17T12:46:14.818Z,43.80
2022-08-17T12:47:04.519Z,43.12
2022-08-17T12:48:04.437Z,43.78
2022-08-17T12:49:04.338Z,43.78
2022-08-17T12:50:03.437Z,42.69
2022-08-17T12:51:03.470Z,41.77
2022-08-17T12:52:03.539Z,40.97
2022-08-17T12:53:03.642Z,42.70
2022-08-17T12:54:03.434Z,41.22
2022-08-17T12:55:03.769Z,41.86
2022-08-17T12:56:03.475Z,38.62
2022-08-17T12:57:03.370Z,40.81
2022-08-17T12:58:03.421Z,40.86
2022-08-17T12:59:03.321Z,38.99
2022-08-17T13:00:03.347Z,36.47
2022-08-17T13:01:04.176Z,36.08
2022-08-17T13:02:03.407Z,38.21
2022-08-17T13:03:03.635Z,37.63
2022-08-17T13:04:03.255Z,37.55
2022-08-17T13:05:03.256Z,38.33
2022-08-17T13:06:03.237Z,39.04
2022-08-17T13:07:03.258Z,38.70
2022-08-17T13:08:03.221Z,40.29
2022-08-17T13:09:04.177Z,38.65
2022-08-17T13:10:03.208Z,40.33
2022-08-17T13:11:03.230Z,37.51
2022-08-17T13:12:03.304Z,38.75
2022-08-17T13:13:03.290Z,41.47
2022-08-17T13:14:04.019Z,39.84
2022-08-17T13:15:03.244Z,40.44
2022-08-17T13:16:04.020Z,39.88
2022-08-17T13:17:03.231Z,39.70
2022-08-17T13:18:03.123Z,38.65
2022-08-17T13:19:03.094Z,39.94
2022-08-17T13:20:03.084Z,39.04
2022-08-17T13:21:03.032Z,39.31
2022-08-17T13:22:04.151Z,43.96
2022-08-17T13:23:03.024Z,42.82
2022-08-17T13:24:03.023Z,43.52
2022-08-17T13:25:04.914Z,42.86
2022-08-17T13:26:03.302Z,41.22
2022-08-17T13:27:07.780Z,42.63
2022-08-17T13:28:04.076Z,42.65
2022-08-17T13:29:03.607Z,43.48
2022-08-17T13:30:03.342Z,43.79
2022-08-17T13:31:03.208Z,44.30
2022-08-17T13:32:04.718Z,44.40
2022-08-17T13:33:04.652Z,44.52
2022-08-17T13:34:02.908Z,45.20
2022-08-17T13:35:16.222Z,45.03
2022-08-17T13:36:04.268Z,45.13
2022-08-17T13:37:02.910Z,45.32
2022-08-17T13:38:03.526Z,46.03
2022-08-17T13:39:03.331Z,45.83
2022-08-17T13:40:03.967Z,45.15
2022-08-17T13:41:03.032Z,46.89
2022-08-17T13:42:04.674Z,44.07
2022-08-17T13:43:02.886Z,45.44
2022-08-17T13:44:03.183Z,45.42
2022-08-17T13:45:02.782Z,46.23
2022-08-17T13:46:03.743Z,45.93
2022-08-17T13:47:02.864Z,47.60
2022-08-17T13:48:03.097Z,47.89
2022-08-17T13:49:02.728Z,48.19
2022-08-17T13:50:03.025Z,48.77
2022-08-17T13:51:02.882Z,49.63
2022-08-17T13:52:02.819Z,52.89
2022-08-17T13:53:02.737Z,52.10
2022-08-17T13:54:02.818Z,51.81
2022-08-17T13:55:03.277Z,52.50
2022-08-17T13:56:02.723Z,48.99
2022-08-17T13:57:03.134Z,49.90
2022-08-17T13:58:06.834Z,51.86
2022-08-17T13:59:02.782Z,49.90
2022-08-17T14:00:02.552Z,51.17
2022-08-17T14:01:02.854Z,50.98
2022-08-17T14:02:02.563Z,50.88
2022-08-17T14:03:02.598Z,50.78
2022-08-17T14:04:02.521Z,48.21
2022-08-17T14:05:03.068Z,45.86
2022-08-17T14:06:02.613Z,47.52
2022-08-17T14:07:02.458Z,44.95
2022-08-17T14:08:06.654Z,49.04
2022-08-17T14:09:02.583Z,51.00
2022-08-17T14:10:02.626Z,47.87
2022-08-17T14:11:02.382Z,51.10
2022-08-17T14:12:02.377Z,46.79
2022-08-17T14:13:02.380Z,49.70
2022-08-17T14:14:02.939Z,48.04
2022-08-17T14:15:02.472Z,45.89
2022-08-17T14:16:02.585Z,44.42
2022-08-17T14:17:02.759Z,45.69
2022-08-17T14:18:04.209Z,51.05
2022-08-17T14:19:03.133Z,47.72
2022-08-17T14:20:02.906Z,49.38
2022-08-17T14:21:02.302Z,50.56
2022-08-17T14:22:02.874Z,47.24
2022-08-17T14:23:02.303Z,49.48
2022-08-17T14:24:02.341Z,48.92
2022-08-17T14:25:04.899Z,46.97
2022-08-17T14:26:02.503Z,46.08
2022-08-17T14:27:02.854Z,46.97
2022-08-17T14:28:02.263Z,45.10
2022-08-17T14:29:02.362Z,45.89
2022-08-17T14:30:02.703Z,46.97
2022-08-17T14:31:02.697Z,51.17
2022-08-17T14:32:02.513Z,48.53
2022-08-17T14:33:03.135Z,51.66
2022-08-17T14:34:03.727Z,52.15
2022-08-17T14:35:02.619Z,49.60
2022-08-17T14:36:02.778Z,49.60
2022-08-17T14:37:02.236Z,48.94
2022-08-17T14:38:02.895Z,48.72
2022-08-17T14:39:02.187Z,49.63
2022-08-17T14:40:03.829Z,48.85
2022-08-17T14:41:02.170Z,52.08
2022-08-17T14:42:03.425Z,52.47
2022-08-17T14:43:02.361Z,50.02
2022-08-17T14:44:03.801Z,51.78
2022-08-17T14:45:02.221Z,52.40
2022-08-17T14:46:02.263Z,51.61
2022-08-17T14:47:02.583Z,50.24
2022-08-17T14:48:02.126Z,49.36
2022-08-17T14:49:02.284Z,49.95
2022-08-17T14:50:01.855Z,50.27
2022-08-17T14:51:02.029Z,47.81
2022-08-17T14:52:02.116Z,48.99
2022-08-17T14:53:01.876Z,51.51
2022-08-17T14:54:01.859Z,54.65
2022-08-17T14:55:01.811Z,51.22
2022-08-17T14:56:01.953Z,52.72
2022-08-17T14:57:22.722Z,55.85
2022-08-17T14:58:02.907Z,53.50
2022-08-17T14:59:01.788Z,54.02
2022-08-17T15:00:01.749Z,49.31
2022-08-17T15:01:01.999Z,51.86
2022-08-17T15:02:01.784Z,52.18
2022-08-17T15:03:01.759Z,55.19
2022-08-17T15:04:01.738Z,54.04
2022-08-17T15:05:01.776Z,55.19
2022-08-17T15:06:01.632Z,50.61
2022-08-17T15:07:02.003Z,49.43
2022-08-17T15:08:01.709Z,52.96
2022-08-17T15:09:01.662Z,53.45
2022-08-17T15:10:02.544Z,53.85
2022-08-17T15:11:01.602Z,54.11
2022-08-17T15:12:01.615Z,52.15
2022-08-17T15:13:01.562Z,49.90
2022-08-17T15:14:01.566Z,50.09
2022-08-17T15:15:01.593Z,52.30
2022-08-17T15:16:01.516Z,49.90
2022-08-17T15:17:01.505Z,48.50
2022-08-17T15:18:02.480Z,49.87
2022-08-17T15:19:01.494Z,50.59
2022-08-17T15:20:01.468Z,48.63
2022-08-17T15:21:01.957Z,48.46
2022-08-17T15:22:01.452Z,50.12
2022-08-17T15:23:01.420Z,49.26
2022-08-17T15:24:01.428Z,50.24
2022-08-17T15:25:01.401Z,47.99
2022-08-17T15:26:01.382Z,53.01
2022-08-17T15:27:01.382Z,49.29
2022-08-17T15:28:01.362Z,50.49
2022-08-17T15:29:01.392Z,48.55
2022-08-17T15:30:01.327Z,49.82
2022-08-17T15:31:01.312Z,49.07
2022-08-17T15:32:01.308Z,54.56
2022-08-17T15:33:02.132Z,54.07
2022-08-17T15:34:01.298Z,53.67
2022-08-17T15:35:01.259Z,54.95
2022-08-17T15:36:01.226Z,52.80
2022-08-17T15:37:01.270Z,52.40
2022-08-17T15:38:06.153Z,53.13
2022-08-17T15:39:02.296Z,49.97
2022-08-17T15:40:01.370Z,50.02
2022-08-17T15:41:01.426Z,50.68
2022-08-17T15:42:01.565Z,48.99
2022-08-17T15:43:01.361Z,51.44
2022-08-17T15:44:01.418Z,46.33
2022-08-17T15:45:01.381Z,46.94
2022-08-17T15:46:01.158Z,46.75
2022-08-17T15:47:01.121Z,48.24
2022-08-17T15:48:01.081Z,48.72
2022-08-17T15:49:01.111Z,52.42
2022-08-17T15:50:01.097Z,49.68
2022-08-17T15:51:01.061Z,52.15
2022-08-17T15:52:01.032Z,52.08
2022-08-17T15:53:01.052Z,49.82
2022-08-17T15:54:04.452Z,49.99
2022-08-17T15:55:02.008Z,48.70
2022-08-17T15:56:01.464Z,51.73
2022-08-17T15:57:00.986Z,47.43
2022-08-17T15:58:00.989Z,49.97
2022-08-17T15:59:00.997Z,51.03
2022-08-17T16:00:01.065Z,48.80
2022-08-17T16:01:16.535Z,50.66
2022-08-17T16:03:15.225Z,46.16
2022-08-17T16:03:46.050Z,47.85
2022-08-17T16:04:06.569Z,50.71
2022-08-17T16:05:01.978Z,49.85
2022-08-17T16:06:01.438Z,51.73
2022-08-17T16:07:01.473Z,50.78
2022-08-17T16:08:01.379Z,51.39
2022-08-17T16:09:01.422Z,50.81
2022-08-17T16:10:00.820Z,52.47
2022-08-17T16:11:01.356Z,51.00
2022-08-17T16:12:02.119Z,51.27
2022-08-17T16:13:02.712Z,53.01
2022-08-17T16:14:00.732Z,51.05
2022-08-17T16:15:01.683Z,47.30
2022-08-17T16:16:01.583Z,49.36
2022-08-17T16:17:00.715Z,49.19
2022-08-17T16:18:00.679Z,48.90
2022-08-17T16:19:01.563Z,51.86
2022-08-17T16:20:00.672Z,51.32
2022-08-17T16:21:00.640Z,53.50
2022-08-17T16:22:00.616Z,53.83
2022-08-17T16:23:01.426Z,56.01
2022-08-17T16:24:00.601Z,56.93
2022-08-17T16:25:00.636Z,57.25
2022-08-17T16:26:00.586Z,59.12
2022-08-17T16:27:01.562Z,58.85
2022-08-17T16:28:01.408Z,59.64
2022-08-17T16:29:00.550Z,59.86
2022-08-17T16:30:01.452Z,59.96
2022-08-17T16:31:01.419Z,59.84
2022-08-17T16:32:01.360Z,58.72
2022-08-17T16:33:01.347Z,58.30
2022-08-17T16:34:17.070Z,57.86
2022-08-17T16:35:01.467Z,57.04
2022-08-17T16:36:01.204Z,56.03
2022-08-17T16:37:01.363Z,55.44
2022-08-17T16:38:00.411Z,55.44
2022-08-17T16:39:01.175Z,56.03
2022-08-17T16:40:00.526Z,56.92
2022-08-17T16:41:00.414Z,57.34
2022-08-17T16:42:00.439Z,57.73
2022-08-17T16:43:00.406Z,59.23
2022-08-17T16:44:00.335Z,57.56
2022-08-17T16:45:00.367Z,58.67
2022-08-17T16:46:00.299Z,60.07
2022-08-17T16:47:00.324Z,58.80
2022-08-17T16:48:00.278Z,60.50
2022-08-17T16:49:00.279Z,60.10
2022-08-17T16:50:00.279Z,60.30
2022-08-17T16:51:04.007Z,62.07
2022-08-17T16:52:00.249Z,60.72
2022-08-17T16:53:00.210Z,60.72
2022-08-17T16:54:00.211Z,60.85
2022-08-17T16:55:00.233Z,60.16
2022-08-17T16:56:00.281Z,61.77
2022-08-17T16:57:00.200Z,60.98
2022-08-17T16:58:00.343Z,61.80
2022-08-17T16:59:00.121Z,62.19
2022-08-17T17:00:01.111Z,62.41
2022-08-17T17:01:01.136Z,61.93
2022-08-17T17:02:00.099Z,62.35
2022-08-17T17:03:00.914Z,63.04
2022-08-17T17:04:01.498Z,62.18
2022-08-17T17:05:00.156Z,64.15
2022-08-17T17:06:00.086Z,63.49
2022-08-17T17:07:00.016Z,64.68
2022-08-17T17:08:00.016Z,64.22
2022-08-17T17:09:00.005Z,64.61
2022-08-17T17:09:59.977Z,64.42
2022-08-17T17:11:00.916Z,63.53
2022-08-17T17:12:00.019Z,63.46
2022-08-17T17:13:03.498Z,65.14
2022-08-17T17:13:59.950Z,65.83
2022-08-17T17:14:59.915Z,66.52
2022-08-17T17:16:00.051Z,65.37
2022-08-17T17:16:59.882Z,66.06
2022-08-17T17:17:59.910Z,64.58
2022-08-17T17:19:01.682Z,64.90
2022-08-17T17:19:59.848Z,64.81
2022-08-17T17:20:59.811Z,65.70
2022-08-17T17:21:59.947Z,66.49
2022-08-17T17:22:59.912Z,65.30
2022-08-17T17:23:59.883Z,65.70
2022-08-17T17:24:59.792Z,66.42
2022-08-17T17:25:59.763Z,67.31
2022-08-17T17:27:00.661Z,67.11
2022-08-17T17:27:59.713Z,67.31
2022-08-17T17:29:00.725Z,66.75
2022-08-17T17:29:59.908Z,66.65
2022-08-17T17:31:02.167Z,66.46
2022-08-17T17:31:59.725Z,67.44
2022-08-17T17:32:59.695Z,66.85
2022-08-17T17:33:59.635Z,66.68
2022-08-17T17:35:00.406Z,67.18
2022-08-17T17:35:59.665Z,67.87
2022-08-17T17:37:00.084Z,68.37
2022-08-17T17:37:59.838Z,67.77
2022-08-17T17:38:59.587Z,67.97
2022-08-17T17:39:59.965Z,69.29
2022-08-17T17:41:02.195Z,68.60
2022-08-17T17:41:59.919Z,68.80
2022-08-17T17:43:20.473Z,68.70
2022-08-17T17:44:01.850Z,68.80
2022-08-17T17:44:59.942Z,68.43
2022-08-17T17:46:26.826Z,69.82
2022-08-17T17:47:01.285Z,69.03
2022-08-17T17:47:59.534Z,69.43
2022-08-17T17:48:59.506Z,69.53
2022-08-17T17:49:59.422Z,69.72
2022-08-17T17:50:59.413Z,70.85
2022-08-17T17:52:08.083Z,70.25
2022-08-17T17:53:00.396Z,70.45
2022-08-17T17:53:59.563Z,69.65
2022-08-17T17:54:59.514Z,69.76
2022-08-17T17:55:59.456Z,70.85
2022-08-17T17:56:59.337Z,70.15
2022-08-17T17:57:59.359Z,70.75
2022-08-17T17:58:59.474Z,70.29
2022-08-17T17:59:59.302Z,70.78
2022-08-17T18:00:59.399Z,70.68
2022-08-17T18:02:00.181Z,70.48
2022-08-17T18:02:59.511Z,72.17
2022-08-17T18:03:59.297Z,71.37
2022-08-17T18:04:59.270Z,71.97
2022-08-17T18:06:00.601Z,71.88
2022-08-17T18:06:59.199Z,71.78
2022-08-17T18:07:59.169Z,71.48
2022-08-17T18:08:59.511Z,70.68